Time,TemperatureF,DewpointF,PressureIn,WindDirection,WindDirectionDegrees,WindSpeedMPH,WindSpeedGustMPH,Humidity,HourlyPrecipIn,Conditions,Clouds,dailyrainin,SoftwareType,DateUTC
2013-05-13 00:00:00,58.0,-99.9,-100.00,SSW,212,1.0,-999.0,-999,-99.99,,,-99.99,,2013-05-13 07:00:00,
2013-05-13 01:00:00,59.0,-99.9,-100.00,SW,231,2.0,-999.0,-999,-99.99,,,-99.99,,2013-05-13 08:00:00,
2013-05-13 02:00:00,57.0,-99.9,-100.00,SSE,164,2.0,-999.0,-999,-99.99,,,-99.99,,2013-05-13 09:00:00,
2013-05-13 03:00:00,57.0,-99.9,-100.00,SSW,197,2.0,-999.0,-999,-99.99,,,-99.99,,2013-05-13 10:00:00,
2013-05-13 04:00:00,57.0,-99.9,-100.00,SE,140,5.0,-999.0,-999,-99.99,,,-99.99,,2013-05-13 11:00:00,
2013-05-13 05:00:00,57.0,-99.9,-100.00,SE,142,6.0,-999.0,-999,-99.99,,,-99.99,,2013-05-13 12:00:00,
2013-05-13 06:00:00,57.0,-99.9,-100.00,SE,146,5.0,-999.0,-999,-99.99,,,-99.99,,2013-05-13 13:00:00,
2013-05-13 08:00:00,59.0,-99.9,-100.00,SSE,149,6.0,-999.0,-999,-99.99,,,-99.99,,2013-05-13 15:00:00,
2013-05-13 09:00:00,59.0,-99.9,-100.00,SSE,150,7.0,-999.0,-999,-99.99,,,-99.99,,2013-05-13 16:00:00,
2013-05-13 10:00:00,59.0,-99.9,-100.00,SSE,155,8.0,-999.0,-999,-99.99,,,-99.99,,2013-05-13 17:00:00,
2013-05-13 11:00:00,64.0,-99.9,-100.00,SE,146,7.0,-999.0,-999,-99.99,,,-99.99,,2013-05-13 18:00:00,
2013-05-13 12:00:00,67.0,-99.9,-100.00,SSE,162,9.0,-999.0,-999,-99.99,,,-99.99,,2013-05-13 19:00:00,
2013-05-13 13:00:00,64.0,-99.9,-100.00,SSE,167,12.0,-999.0,-999,-99.99,,,-99.99,,2013-05-13 20:00:00,
2013-05-13 14:00:00,62.0,-99.9,-100.00,SSW,204,14.0,-999.0,-999,-99.99,,,-99.99,,2013-05-13 21:00:00,
2013-05-13 16:00:00,64.0,-99.9,-100.00,South,182,15.0,-999.0,-999,-99.99,,,-99.99,,2013-05-13 23:00:00,
2013-05-13 17:00:00,64.0,-99.9,-100.00,SSW,194,18.0,-999.0,-999,-99.99,,,-99.99,,2013-05-14 00:00:00,
2013-05-13 18:00:00,56.0,-99.9,-100.00,WNW,303,10.0,-999.0,-999,-99.99,,,-99.99,,2013-05-14 01:00:00,
2013-05-13 19:00:00,53.0,-99.9,-100.00,NNE,30,3.0,-999.0,-999,-99.99,,,-99.99,,2013-05-14 02:00:00,
2013-05-13 21:00:00,50.0,-99.9,-100.00,NE,36,3.0,-999.0,-999,-99.99,,,-99.99,,2013-05-14 04:00:00,
2013-05-13 22:00:00,50.0,-99.9,-100.00,ENE,68,3.0,-999.0,-999,-99.99,,,-99.99,,2013-05-14 05:00:00,
2013-05-13 23:00:00,50.0,-99.9,-100.00,NE,36,2.0,-999.0,-999,-99.99,,,-99.99,,2013-05-14 06:00:00,